Prairieville, Illinois
Current Conditions -  °F | °C
As of 1:35 PM on Friday 24 Oct 2014 (Local Time) from KSQI Reporting Station
Broken Clouds Broken Clouds  
Wind Chill: 59°   Ceiling: 800
Heat Index: 59°   Visibility: 8mi
Dew Point: 52°   Wind: 3mph
Humidity: 77%   Direction: 230°SW
Pressure: 30.02"   Gusts: NA
Location:  41.8109°N, 89.4546°W
Report Text: KSQI 241835Z AUTO 23003KT 8SM BKN008 15/11 A3002 RMK AO1
Loading
Personal Weather Stations






























Interactive Weather Map
Tropical Storm Tracking
New forecast layout! Learn more

10-Day Weather Forecast

Advertisements
Track Severe Weather on mobile